createdAt,value
2019-01-29T00:00:12.151Z,91.33
2019-01-29T00:00:52.700Z,91.47
2019-01-29T00:01:33.268Z,91.47
2019-01-29T00:02:13.832Z,91.85
2019-01-29T00:02:54.382Z,91.14
2019-01-29T00:03:34.946Z,90.91
2019-01-29T00:04:15.504Z,91.09
2019-01-29T00:04:56.057Z,91.47
2019-01-29T00:05:36.629Z,91.28
2019-01-29T00:06:17.188Z,91.14
2019-01-29T00:06:57.771Z,91.05
2019-01-29T00:07:38.331Z,91.14
2019-01-29T00:08:18.903Z,91.28
2019-01-29T00:08:59.463Z,91.71
2019-01-29T00:09:40.026Z,91.33
2019-01-29T00:10:20.570Z,91.33
2019-01-29T00:11:01.129Z,91.14
2019-01-29T00:11:41.702Z,91.14
2019-01-29T00:12:22.295Z,91.33
2019-01-29T00:13:02.865Z,91.47
2019-01-29T00:13:43.427Z,91.24
2019-01-29T00:14:24.003Z,91.52
2019-01-29T00:15:04.561Z,91.24
2019-01-29T00:15:45.127Z,91.28
2019-01-29T00:16:25.681Z,90.81
2019-01-29T00:17:06.251Z,91.14
2019-01-29T00:17:46.807Z,91.09
2019-01-29T00:18:27.373Z,91.38
2019-01-29T00:19:07.931Z,91.19
2019-01-29T00:19:48.511Z,91.42
2019-01-29T00:20:29.049Z,91.33
2019-01-29T00:21:09.608Z,91.33
2019-01-29T00:21:50.160Z,91.28
2019-01-29T00:22:33.415Z,91.76
2019-01-29T00:23:11.272Z,91.28
2019-01-29T00:23:51.841Z,91.28
2019-01-29T00:24:32.395Z,91.57
2019-01-29T00:25:12.956Z,91.33
2019-01-29T00:25:53.512Z,91
2019-01-29T00:26:34.084Z,91
2019-01-29T00:27:14.651Z,91.28
2019-01-29T00:27:55.202Z,91.09
2019-01-29T00:28:35.762Z,91.09
2019-01-29T00:29:16.317Z,91.28
2019-01-29T00:29:56.879Z,91.28
2019-01-29T00:30:37.453Z,91.38
2019-01-29T00:31:18.021Z,91.09
2019-01-29T00:31:58.581Z,91.19
2019-01-29T00:32:39.146Z,91.47
2019-01-29T00:33:19.715Z,91.38
2019-01-29T00:34:00.271Z,91.28
2019-01-29T00:34:40.829Z,91.38
2019-01-29T00:35:21.381Z,92.04
2019-01-29T00:36:01.944Z,91.76
2019-01-29T00:36:42.507Z,92.04
2019-01-29T00:37:23.093Z,91.85
2019-01-29T00:38:03.686Z,91.76
2019-01-29T00:38:44.247Z,91.85
2019-01-29T00:39:24.805Z,91.85
2019-01-29T00:40:05.451Z,91.95
2019-01-29T00:40:46.025Z,91.38
2019-01-29T00:41:26.560Z,91.66
2019-01-29T00:42:07.110Z,91
2019-01-29T00:42:47.674Z,91.57
2019-01-29T00:43:28.231Z,91.38
2019-01-29T00:44:08.798Z,91.76
2019-01-29T00:44:49.415Z,91.95
2019-01-29T00:45:29.972Z,92.04
2019-01-29T00:46:10.573Z,92.04
2019-01-29T00:46:51.121Z,92.04
2019-01-29T00:47:31.670Z,91.95
2019-01-29T00:48:12.241Z,91.28
2019-01-29T00:48:52.806Z,91.38
2019-01-29T00:49:33.373Z,92.14
2019-01-29T00:50:13.942Z,92.04
2019-01-29T00:50:54.490Z,91.76
2019-01-29T00:51:35.077Z,92.33
2019-01-29T00:52:15.643Z,92.33
2019-01-29T00:52:56.201Z,91.95
2019-01-29T00:53:36.770Z,92.04
2019-01-29T00:54:17.332Z,92.14
2019-01-29T00:54:57.895Z,92.14
2019-01-29T00:55:38.449Z,92.33
2019-01-29T00:56:19.037Z,91.95
2019-01-29T00:56:59.589Z,92.33
2019-01-29T00:57:40.146Z,92.14
2019-01-29T00:58:20.697Z,92.52
2019-01-29T00:59:01.289Z,92.04
2019-01-29T00:59:41.840Z,92.23
2019-01-29T01:00:22.393Z,92.23
2019-01-29T01:01:02.955Z,92.33
2019-01-29T01:01:43.525Z,92.14
2019-01-29T01:02:24.136Z,92.14
2019-01-29T01:03:04.708Z,92.33
2019-01-29T01:03:45.331Z,91.85
2019-01-29T01:04:25.882Z,92.14
2019-01-29T01:05:06.443Z,91.95
2019-01-29T01:05:47.003Z,92.14
2019-01-29T01:06:27.571Z,92.14
2019-01-29T01:07:08.144Z,92.33
2019-01-29T01:07:48.708Z,91.76
2019-01-29T01:08:29.275Z,91.66
2019-01-29T01:09:09.843Z,91.95
2019-01-29T01:09:56.962Z,91.95
2019-01-29T01:10:30.978Z,91.76
2019-01-29T01:11:11.516Z,91.85
2019-01-29T01:11:52.084Z,91.66
2019-01-29T01:12:32.631Z,91.57
2019-01-29T01:13:13.188Z,91.09
2019-01-29T01:13:53.757Z,91.38
2019-01-29T01:14:34.332Z,91.28
2019-01-29T01:15:14.888Z,91.28
2019-01-29T01:15:55.436Z,91.38
2019-01-29T01:16:36.030Z,91.66
2019-01-29T01:17:16.592Z,91.09
2019-01-29T01:17:57.139Z,91.09
2019-01-29T01:18:37.707Z,91.57
2019-01-29T01:19:18.276Z,91.47
2019-01-29T01:19:58.837Z,90.81
2019-01-29T01:20:39.415Z,91.57
2019-01-29T01:21:19.966Z,91.09
2019-01-29T01:22:00.527Z,91.09
2019-01-29T01:22:41.089Z,91.47
2019-01-29T01:23:21.672Z,91
2019-01-29T01:24:02.227Z,91.19
2019-01-29T01:24:42.793Z,91.09
2019-01-29T01:25:23.380Z,90.15
2019-01-29T01:26:03.941Z,90.24
2019-01-29T01:26:44.503Z,90.15
2019-01-29T01:27:25.055Z,90.34
2019-01-29T01:28:05.609Z,90.43
2019-01-29T01:28:46.217Z,90.34
2019-01-29T01:29:26.799Z,89.96
2019-01-29T01:30:07.337Z,89.77
2019-01-29T01:30:47.900Z,89.96
2019-01-29T01:31:28.465Z,89.96
2019-01-29T01:32:09.010Z,89.77
2019-01-29T01:32:49.562Z,89.77
2019-01-29T01:33:30.138Z,89.96
2019-01-29T01:34:10.716Z,89.77
2019-01-29T01:34:51.275Z,89.58
2019-01-29T01:35:31.829Z,89.86
2019-01-29T01:36:12.387Z,89.58
2019-01-29T01:36:52.950Z,90.34
2019-01-29T01:37:33.499Z,89.96
2019-01-29T01:38:14.062Z,90.62
2019-01-29T01:38:54.616Z,90.43
2019-01-29T01:39:35.178Z,90.53
2019-01-29T01:40:15.732Z,90.62
2019-01-29T01:40:56.293Z,90.62
2019-01-29T01:41:36.855Z,90.43
2019-01-29T01:42:17.420Z,90.34
2019-01-29T01:42:57.988Z,90.43
2019-01-29T01:43:38.567Z,90.34
2019-01-29T01:44:19.114Z,90.24
2019-01-29T01:44:59.677Z,90.53
2019-01-29T01:45:40.219Z,90.62
2019-01-29T01:46:20.766Z,90.62
2019-01-29T01:47:01.338Z,90.62
2019-01-29T01:47:41.893Z,90.72
2019-01-29T01:48:22.449Z,90.24
2019-01-29T01:49:02.992Z,90.43
2019-01-29T01:49:43.545Z,90.43
2019-01-29T01:50:24.110Z,90.53
2019-01-29T01:51:04.669Z,90.53
2019-01-29T01:51:45.217Z,90.77
2019-01-29T01:52:25.795Z,89.91
2019-01-29T01:53:06.379Z,89.91
2019-01-29T01:53:46.941Z,90.1
2019-01-29T01:54:27.499Z,90.39
2019-01-29T01:55:08.054Z,90.77
2019-01-29T01:55:48.619Z,90.58
2019-01-29T01:56:29.171Z,90.39
2019-01-29T01:57:09.733Z,90.48
2019-01-29T01:57:50.305Z,90.95
2019-01-29T01:58:30.865Z,91.19
2019-01-29T01:59:11.421Z,90.95
2019-01-29T01:59:52.005Z,91.47
2019-01-29T02:00:32.565Z,91.43
2019-01-29T02:01:13.118Z,91.24
2019-01-29T02:01:53.670Z,91.24
2019-01-29T02:02:34.232Z,91.24
2019-01-29T02:03:14.787Z,91.33
2019-01-29T02:03:55.351Z,91.24
2019-01-29T02:04:35.925Z,91.28
2019-01-29T02:05:16.498Z,91.33
2019-01-29T02:05:57.048Z,91.09
2019-01-29T02:06:37.606Z,91.24
2019-01-29T02:07:18.156Z,91.43
2019-01-29T02:07:58.708Z,91.43
2019-01-29T02:08:39.262Z,91.05
2019-01-29T02:09:19.819Z,90.95
2019-01-29T02:10:00.384Z,91.14
2019-01-29T02:10:40.923Z,91.14
2019-01-29T02:11:21.501Z,91.05
2019-01-29T02:12:02.069Z,90.95
2019-01-29T02:12:42.641Z,91.24
2019-01-29T02:13:23.193Z,91.52
2019-01-29T02:14:03.750Z,91.33
2019-01-29T02:14:44.322Z,91.09
2019-01-29T02:15:24.884Z,91.09
2019-01-29T02:16:05.482Z,91.05
2019-01-29T02:16:46.034Z,90.77
2019-01-29T02:17:26.627Z,90.86
2019-01-29T02:18:07.213Z,90.48
2019-01-29T02:18:47.815Z,90.67
2019-01-29T02:19:28.345Z,90.39
2019-01-29T02:20:08.942Z,90.34
2019-01-29T02:20:49.501Z,90.58
2019-01-29T02:21:30.046Z,90.29
2019-01-29T02:22:10.628Z,89.91
2019-01-29T02:22:51.288Z,89.91
2019-01-29T02:23:31.856Z,89.82
2019-01-29T02:24:12.414Z,90.1
2019-01-29T02:24:52.984Z,90.29
2019-01-29T02:25:33.518Z,90.01
2019-01-29T02:26:14.093Z,90.2
2019-01-29T02:26:54.649Z,89.53
2019-01-29T02:27:35.211Z,89.82
2019-01-29T02:28:15.748Z,89.91
2019-01-29T02:28:56.349Z,89.91
2019-01-29T02:29:36.913Z,90.86
2019-01-29T02:30:17.470Z,90.39
2019-01-29T02:30:58.031Z,90.01
2019-01-29T02:31:38.606Z,90.67
2019-01-29T02:32:19.178Z,90.58
2019-01-29T02:32:59.725Z,90.77
2019-01-29T02:33:40.274Z,90.48
2019-01-29T02:34:20.843Z,90.39
2019-01-29T02:35:01.422Z,90.2
2019-01-29T02:35:41.990Z,90.39
2019-01-29T02:36:22.538Z,90.67
2019-01-29T02:37:03.121Z,90.86
2019-01-29T02:37:43.713Z,90.48
2019-01-29T02:38:24.286Z,90.39
2019-01-29T02:39:04.841Z,90.01
2019-01-29T02:39:45.395Z,90.2
2019-01-29T02:40:26.043Z,90.48
2019-01-29T02:41:06.536Z,90.1
2019-01-29T02:41:47.084Z,90.1
2019-01-29T02:42:27.634Z,89.82
2019-01-29T02:43:08.178Z,89.25
2019-01-29T02:43:48.748Z,89.06
2019-01-29T02:44:29.303Z,88.87
2019-01-29T02:45:09.874Z,89.34
2019-01-29T02:45:50.432Z,89.25
2019-01-29T02:46:30.985Z,89.63
2019-01-29T02:47:11.580Z,89.72
2019-01-29T02:47:52.139Z,89.82
2019-01-29T02:48:32.684Z,89.44
2019-01-29T02:49:13.246Z,89.53
2019-01-29T02:49:53.808Z,89.53
2019-01-29T02:50:34.369Z,89.91
2019-01-29T02:51:14.962Z,89.72
2019-01-29T02:51:55.521Z,89.72
2019-01-29T02:52:36.074Z,89.63
2019-01-29T02:53:18.210Z,89.53
2019-01-29T02:53:57.202Z,89.63
2019-01-29T02:54:37.756Z,89.53
2019-01-29T02:55:18.303Z,89.53
2019-01-29T02:55:58.870Z,89.34
2019-01-29T02:56:39.438Z,89.34
2019-01-29T02:57:19.998Z,90.01
2019-01-29T02:58:00.560Z,89.82
2019-01-29T03:03:22.347Z,90.1
2019-01-29T03:04:02.931Z,89.63
2019-01-29T03:04:43.461Z,89.72
2019-01-29T03:05:24.012Z,89.44
2019-01-29T03:06:04.563Z,89.72
2019-01-29T03:06:45.106Z,89.91
2019-01-29T03:07:25.658Z,90.29
2019-01-29T03:08:06.203Z,90.48
2019-01-29T03:08:46.755Z,90.39
2019-01-29T03:09:27.318Z,90.39
2019-01-29T03:10:07.892Z,90.29
2019-01-29T03:10:48.452Z,90.39
2019-01-29T03:11:29.014Z,90.48
2019-01-29T03:12:09.572Z,91.05
2019-01-29T03:12:50.134Z,91.24
2019-01-29T03:13:30.693Z,91.05
2019-01-29T03:14:11.270Z,90.95
2019-01-29T03:14:51.818Z,90.39
2019-01-29T03:15:32.376Z,90.67
2019-01-29T03:16:12.933Z,90.67
2019-01-29T03:16:53.488Z,90.67
2019-01-29T03:17:34.056Z,90.95
2019-01-29T03:18:14.623Z,90.86
2019-01-29T03:18:55.214Z,90.58
2019-01-29T03:19:35.755Z,90.77
2019-01-29T03:20:16.303Z,90.67
2019-01-29T03:20:56.865Z,90.29
2019-01-29T03:21:37.430Z,90.48
2019-01-29T03:22:17.981Z,90.77
2019-01-29T03:22:58.548Z,90.39
2019-01-29T03:23:39.119Z,90.01
2019-01-29T03:24:19.672Z,89.91
2019-01-29T03:25:00.357Z,89.82
2019-01-29T03:25:40.792Z,89.63
2019-01-29T03:26:21.341Z,89.82
2019-01-29T03:27:01.903Z,89.63
2019-01-29T03:27:42.480Z,89.63
2019-01-29T03:28:23.024Z,90.1
2019-01-29T03:29:03.581Z,90.2
2019-01-29T03:29:44.141Z,89.53
2019-01-29T03:30:24.740Z,89.96
2019-01-29T03:31:05.307Z,89.87
2019-01-29T03:31:45.866Z,89.91
2019-01-29T03:32:26.412Z,90.2
2019-01-29T03:33:06.992Z,90.53
2019-01-29T03:33:47.545Z,90.34
2019-01-29T03:34:28.124Z,90.25
2019-01-29T03:35:08.667Z,89.87
2019-01-29T03:35:49.242Z,89.77
2019-01-29T03:36:29.809Z,90.15
2019-01-29T03:37:10.372Z,90.53
2019-01-29T03:37:50.935Z,90.34
2019-01-29T03:38:31.494Z,90.53
2019-01-29T03:39:12.052Z,90.63
2019-01-29T03:39:52.610Z,90.44
2019-01-29T03:40:33.173Z,90.53
2019-01-29T03:41:13.746Z,90.06
2019-01-29T03:41:54.294Z,90.34
2019-01-29T03:42:34.862Z,90.39
2019-01-29T03:43:15.413Z,90.48
2019-01-29T03:43:55.998Z,90.34
2019-01-29T03:44:36.553Z,90.34
2019-01-29T03:45:17.100Z,90.39
2019-01-29T03:45:57.660Z,90.25
2019-01-29T03:46:38.214Z,90.48
2019-01-29T03:47:18.775Z,90.58
2019-01-29T03:47:59.571Z,89.91
2019-01-29T03:48:40.137Z,89.91
2019-01-29T03:49:20.718Z,90.1
2019-01-29T03:50:01.279Z,89.72
2019-01-29T03:50:41.835Z,89.34
2019-01-29T03:51:22.384Z,88.73
2019-01-29T03:52:02.972Z,88.82
2019-01-29T03:52:43.527Z,88.64
2019-01-29T03:53:24.105Z,89.01
2019-01-29T03:54:04.665Z,88.54
2019-01-29T03:54:45.211Z,88.73
2019-01-29T03:55:25.768Z,89.39
2019-01-29T03:56:06.345Z,89.39
2019-01-29T03:56:46.897Z,89.49
2019-01-29T03:57:27.469Z,90.15
2019-01-29T03:58:08.060Z,89.87
2019-01-29T03:58:48.616Z,90.15
2019-01-29T03:59:29.171Z,89.96
2019-01-29T04:00:09.739Z,89.96
2019-01-29T04:00:50.287Z,90.34
2019-01-29T04:01:30.846Z,90.25
2019-01-29T04:02:11.414Z,90.25
2019-01-29T04:02:52.003Z,90.25
2019-01-29T04:03:32.552Z,90.06
2019-01-29T04:04:13.108Z,89.87
2019-01-29T04:04:53.681Z,90.15
2019-01-29T04:05:34.230Z,89.96
2019-01-29T04:06:14.800Z,89.87
2019-01-29T04:06:55.358Z,89.87
2019-01-29T04:07:35.910Z,90.34
2019-01-29T04:08:16.485Z,89.77
2019-01-29T04:08:57.077Z,89.77
2019-01-29T04:09:37.627Z,90.06
2019-01-29T04:10:18.200Z,89.58
2019-01-29T04:10:58.763Z,89.58
2019-01-29T04:11:39.330Z,89.68
2019-01-29T04:12:19.885Z,89.68
2019-01-29T04:13:00.454Z,89.2
2019-01-29T04:13:41.017Z,89.39
2019-01-29T04:14:21.583Z,89.96
2019-01-29T04:15:02.154Z,89.87
2019-01-29T04:15:42.726Z,89.87
2019-01-29T04:16:23.283Z,90.15
2019-01-29T04:17:03.847Z,89.3
2019-01-29T04:17:44.402Z,89.49
2019-01-29T04:18:24.966Z,89.2
2019-01-29T04:19:05.528Z,89.49
2019-01-29T04:19:46.073Z,88.82
2019-01-29T04:20:26.626Z,88.73
2019-01-29T04:21:07.252Z,88.92
2019-01-29T04:21:47.840Z,88.82
2019-01-29T04:22:28.404Z,88.82
2019-01-29T04:23:08.972Z,89.01
2019-01-29T04:23:49.529Z,89.11
2019-01-29T04:24:30.090Z,89.01
2019-01-29T04:25:10.645Z,88.73
2019-01-29T04:25:51.209Z,88.92
2019-01-29T04:26:31.767Z,88.45
2019-01-29T04:27:12.335Z,88.45
2019-01-29T04:27:52.911Z,88.64
2019-01-29T04:28:33.498Z,88.54
2019-01-29T04:29:14.025Z,87.78
2019-01-29T04:29:54.580Z,88.45
2019-01-29T04:30:35.151Z,88.26
2019-01-29T04:31:15.798Z,88.35
2019-01-29T04:31:56.356Z,88.07
2019-01-29T04:32:36.932Z,88.07
2019-01-29T04:33:17.489Z,88.73
2019-01-29T04:33:58.056Z,88.73
2019-01-29T04:34:38.621Z,88.64
2019-01-29T04:35:19.168Z,88.82
2019-01-29T04:35:59.721Z,88.17
2019-01-29T04:36:40.295Z,87.59
2019-01-29T04:37:20.846Z,87.5
2019-01-29T04:38:01.464Z,87.69
2019-01-29T04:38:42.029Z,87.69
2019-01-29T04:39:22.579Z,87.59
2019-01-29T04:40:03.136Z,87.98
2019-01-29T04:40:43.680Z,87.69
2019-01-29T04:41:24.261Z,88.07
2019-01-29T04:42:04.815Z,87.5
2019-01-29T04:42:45.376Z,87.31
2019-01-29T04:43:25.955Z,87.4
2019-01-29T04:44:06.511Z,87.12
2019-01-29T04:44:47.061Z,86.65
2019-01-29T04:45:27.635Z,86.74
2019-01-29T04:46:08.197Z,86.74
2019-01-29T04:46:48.753Z,86.83
2019-01-29T04:47:29.318Z,86.83
2019-01-29T04:48:09.892Z,86.74
2019-01-29T04:48:50.447Z,86.83
2019-01-29T04:49:31.006Z,87.02
2019-01-29T04:50:11.549Z,86.65
2019-01-29T04:50:52.106Z,86.08
2019-01-29T04:51:32.663Z,86.65
2019-01-29T04:52:13.219Z,86.36
2019-01-29T04:52:53.890Z,85.99
2019-01-29T04:53:34.339Z,86.27
2019-01-29T04:54:14.890Z,85.8
2019-01-29T04:54:55.442Z,85.61
2019-01-29T04:55:36.039Z,85.61
2019-01-29T04:56:16.605Z,86.36
2019-01-29T04:56:57.153Z,85.89
2019-01-29T04:57:37.715Z,86.74
2019-01-29T04:58:18.301Z,86.65
2019-01-29T04:58:58.850Z,86.65
2019-01-29T04:59:39.412Z,86.36
2019-01-29T05:00:19.976Z,86.08
2019-01-29T05:01:00.533Z,85.99
2019-01-29T05:01:41.098Z,86.36
2019-01-29T05:02:21.649Z,85.89
2019-01-29T05:03:02.204Z,85.99
2019-01-29T05:03:42.761Z,86.18
2019-01-29T05:04:23.304Z,86.08
2019-01-29T05:05:03.871Z,85.99
2019-01-29T05:05:44.421Z,86.18
2019-01-29T05:06:24.972Z,86.08
2019-01-29T05:07:05.542Z,86.08
2019-01-29T05:07:46.114Z,86.08
2019-01-29T05:08:26.665Z,86.08
2019-01-29T05:09:07.227Z,86.18
2019-01-29T05:09:47.889Z,86.27
2019-01-29T05:10:28.554Z,86.18
2019-01-29T05:11:09.108Z,86.36
2019-01-29T05:11:49.659Z,85.51
2019-01-29T05:12:30.209Z,85.7
2019-01-29T05:13:10.762Z,85.51
2019-01-29T05:13:51.337Z,85.8
2019-01-29T05:14:31.880Z,85.89
2019-01-29T05:15:12.438Z,85.89
2019-01-29T05:15:53.035Z,85.13
2019-01-29T05:16:33.582Z,84.75
2019-01-29T05:17:14.134Z,85.13
2019-01-29T05:17:54.699Z,85.13
2019-01-29T05:18:35.270Z,85.23
2019-01-29T05:19:15.828Z,85.04
2019-01-29T05:19:56.390Z,85.32
2019-01-29T05:20:36.941Z,85.04
2019-01-29T05:21:17.503Z,85.13
2019-01-29T05:21:58.056Z,85.51
2019-01-29T05:22:38.617Z,85.89
2019-01-29T05:23:19.189Z,85.89
2019-01-29T05:24:06.581Z,85.04
2019-01-29T05:24:40.307Z,85.32
2019-01-29T05:25:20.869Z,84.85
2019-01-29T05:26:01.431Z,85.23
2019-01-29T05:26:41.983Z,85.23
2019-01-29T05:27:22.549Z,85.23
2019-01-29T05:28:03.104Z,84.94
2019-01-29T05:28:43.666Z,84.94
2019-01-29T05:29:24.216Z,84.56
2019-01-29T05:30:04.766Z,84.47
2019-01-29T05:30:45.324Z,84.85
2019-01-29T05:31:25.877Z,84.19
2019-01-29T05:32:06.447Z,84.28
2019-01-29T05:32:47.009Z,84.09
2019-01-29T05:33:27.577Z,83.81
2019-01-29T05:34:08.130Z,84.09
2019-01-29T05:34:48.733Z,83.81
2019-01-29T05:35:29.311Z,84
2019-01-29T05:36:09.872Z,84.09
2019-01-29T05:36:50.419Z,83.9
2019-01-29T05:37:30.976Z,83.9
2019-01-29T05:38:11.535Z,84.09
2019-01-29T05:38:52.088Z,84
2019-01-29T05:39:32.637Z,83.71
2019-01-29T05:40:13.206Z,83.43
2019-01-29T05:40:53.763Z,83.62
2019-01-29T05:41:34.312Z,83.71
2019-01-29T05:42:14.878Z,83.43
2019-01-29T05:42:55.468Z,83.52
2019-01-29T05:43:36.020Z,83.33
2019-01-29T05:44:16.573Z,83.24
2019-01-29T05:44:57.120Z,83.33
2019-01-29T05:45:37.685Z,83.43
2019-01-29T05:46:18.239Z,83.33
2019-01-29T05:46:58.810Z,83.14
2019-01-29T05:47:39.374Z,83.14
2019-01-29T05:48:19.964Z,83.33
2019-01-29T05:49:00.470Z,83.05
2019-01-29T05:49:41.163Z,83.05
2019-01-29T05:50:21.724Z,82.95
2019-01-29T05:51:03.179Z,83.05
2019-01-29T05:51:43.734Z,83.05
2019-01-29T05:52:24.303Z,82.86
2019-01-29T05:53:04.862Z,82.95
2019-01-29T05:53:45.425Z,83.24
2019-01-29T05:54:25.993Z,83.14
2019-01-29T05:55:06.552Z,83.14
2019-01-29T05:55:47.110Z,83.05
2019-01-29T05:56:27.704Z,82.95
2019-01-29T05:57:08.266Z,83.05
2019-01-29T05:57:48.836Z,83.14
2019-01-29T05:58:29.407Z,82.48
2019-01-29T05:59:09.970Z,82.57
2019-01-29T05:59:50.531Z,82.57
2019-01-29T06:00:31.127Z,83.33
2019-01-29T06:01:11.685Z,82.86
2019-01-29T06:01:52.253Z,83.14
2019-01-29T06:02:32.814Z,83.05
2019-01-29T06:03:13.367Z,82.95
2019-01-29T06:03:53.932Z,82.86
2019-01-29T06:04:34.526Z,83.05
2019-01-29T06:05:15.072Z,83.14
2019-01-29T06:05:55.630Z,83.05
2019-01-29T06:06:36.186Z,82.76
2019-01-29T06:07:16.750Z,82.39
2019-01-29T06:07:57.324Z,82.1
2019-01-29T06:08:37.894Z,82.1
2019-01-29T06:09:18.481Z,82.29
2019-01-29T06:09:59.042Z,82.1
2019-01-29T06:10:39.609Z,82.1
2019-01-29T06:11:20.166Z,82.2
2019-01-29T06:12:00.739Z,81.72
2019-01-29T06:12:41.291Z,82.67
2019-01-29T06:13:21.868Z,82.39
2019-01-29T06:14:02.433Z,82.39
2019-01-29T06:14:42.982Z,82.29
2019-01-29T06:15:23.533Z,82.67
2019-01-29T06:16:04.122Z,82.29
2019-01-29T06:16:44.654Z,82.01
2019-01-29T06:17:27.441Z,82.2
2019-01-29T06:18:05.806Z,82.2
2019-01-29T06:18:46.369Z,82.39
2019-01-29T06:19:26.938Z,82.29
2019-01-29T06:20:07.502Z,82.2
2019-01-29T06:20:48.079Z,82.2
2019-01-29T06:21:28.645Z,82.39
2019-01-29T06:22:09.206Z,83.05
2019-01-29T06:22:49.768Z,83.14
2019-01-29T06:23:30.316Z,83.14
2019-01-29T06:24:10.870Z,82.67
2019-01-29T06:24:51.417Z,82.29
2019-01-29T06:25:31.975Z,82.2
2019-01-29T06:26:12.547Z,82.29
2019-01-29T06:26:53.111Z,82.57
2019-01-29T06:27:33.662Z,82.48
2019-01-29T06:28:14.272Z,82.48
2019-01-29T06:28:54.858Z,82.63
2019-01-29T06:29:35.518Z,82.67
2019-01-29T06:30:16.098Z,82.34
2019-01-29T06:30:56.664Z,83.62
2019-01-29T06:31:37.481Z,85.42
2019-01-29T06:32:18.009Z,90.72
2019-01-29T06:32:58.690Z,94.89
2019-01-29T06:33:39.214Z,98.82
2019-01-29T06:34:19.873Z,99.99
2019-01-29T06:35:00.583Z,99.99
2019-01-29T06:35:41.156Z,99.99
2019-01-29T06:36:21.754Z,98.3
2019-01-29T06:37:02.330Z,94.89
2019-01-29T06:37:42.917Z,94.08
2019-01-29T06:38:23.492Z,92.66
2019-01-29T06:39:04.047Z,92.18
2019-01-29T06:39:44.622Z,90.38
2019-01-29T06:40:25.188Z,89.1
2019-01-29T06:41:05.762Z,86.63
2019-01-29T06:41:46.332Z,83.69
2019-01-29T06:42:26.882Z,83.4
2019-01-29T06:43:07.439Z,83.97
2019-01-29T06:43:48.010Z,83.03
2019-01-29T06:44:28.617Z,82.12
2019-01-29T06:45:09.259Z,80.79
2019-01-29T06:45:49.813Z,79.27
2019-01-29T06:46:30.374Z,78.42
2019-01-29T06:47:10.922Z,78.32
2019-01-29T06:47:51.477Z,78.03
2019-01-29T06:48:32.212Z,76.61
2019-01-29T06:49:12.798Z,73.96
2019-01-29T06:49:53.396Z,71.96
2019-01-29T06:50:33.972Z,70.63
2019-01-29T06:51:14.537Z,69.3
2019-01-29T06:51:55.138Z,69.08
2019-01-29T06:52:35.708Z,68.51
2019-01-29T06:53:16.288Z,68.7
2019-01-29T06:53:56.853Z,69.04
2019-01-29T06:54:37.409Z,69.61
2019-01-29T06:55:17.957Z,70.47
2019-01-29T06:55:58.518Z,70.56
2019-01-29T06:56:39.073Z,71.28
2019-01-29T06:57:19.643Z,71.76
2019-01-29T06:58:00.233Z,72.42
2019-01-29T06:58:40.791Z,72.61
2019-01-29T06:59:21.357Z,73.08
2019-01-29T07:00:01.952Z,73.56
2019-01-29T07:00:42.519Z,73.24
2019-01-29T07:01:23.105Z,74.28
2019-01-29T07:02:03.670Z,74.09
2019-01-29T07:02:44.236Z,74.66
2019-01-29T07:03:24.809Z,75.32
2019-01-29T07:04:05.405Z,75.7
2019-01-29T07:04:46.115Z,76.36
2019-01-29T07:05:26.928Z,76.74
2019-01-29T07:06:08.446Z,77.03
2019-01-29T07:06:49.006Z,77.12
2019-01-29T07:07:29.579Z,77.4
2019-01-29T07:08:10.221Z,77.5
2019-01-29T07:08:50.782Z,77.69
2019-01-29T07:09:31.512Z,78.26
2019-01-29T07:10:12.142Z,78.03
2019-01-29T07:10:52.724Z,78.5
2019-01-29T07:11:33.279Z,78.83
2019-01-29T07:12:14.392Z,78.59
2019-01-29T07:12:55.141Z,79.21
2019-01-29T07:13:36.150Z,78.88
2019-01-29T07:14:17.340Z,79.45
2019-01-29T07:14:58.187Z,79.17
2019-01-29T07:15:38.747Z,79.26
2019-01-29T07:16:19.311Z,79.45
2019-01-29T07:16:59.887Z,79.17
2019-01-29T07:17:40.453Z,79.83
2019-01-29T07:18:21.025Z,79.83
2019-01-29T07:19:01.575Z,80.11
2019-01-29T07:19:42.142Z,80.11
2019-01-29T07:20:22.694Z,80.21
2019-01-29T07:21:03.280Z,80.21
2019-01-29T07:21:43.836Z,80.4
2019-01-29T07:22:24.379Z,80.87
2019-01-29T07:23:04.964Z,80.58
2019-01-29T07:23:45.825Z,80.87
2019-01-29T07:24:26.410Z,80.77
2019-01-29T07:25:06.979Z,81.15
2019-01-29T07:25:47.544Z,81.15
2019-01-29T07:26:28.169Z,82.1
2019-01-29T07:27:08.650Z,81.92
2019-01-29T07:27:49.233Z,82.01
2019-01-29T07:28:29.815Z,82.2
2019-01-29T07:29:10.397Z,82.48
2019-01-29T07:29:50.978Z,81.72
2019-01-29T07:30:31.559Z,81.72
2019-01-29T07:31:12.121Z,82.01
2019-01-29T07:31:52.701Z,82.1
2019-01-29T07:32:33.259Z,82.57
2019-01-29T07:33:13.822Z,82.2
2019-01-29T07:33:54.391Z,82.76
2019-01-29T07:34:34.952Z,82.86
2019-01-29T07:35:15.549Z,83.24
2019-01-29T07:35:56.143Z,82.95
2019-01-29T07:36:36.705Z,83.52
2019-01-29T07:37:21.919Z,83.71
2019-01-29T07:37:57.871Z,83.9
2019-01-29T07:38:38.417Z,84.38
2019-01-29T07:39:18.992Z,84.75
2019-01-29T07:39:59.582Z,84.75
2019-01-29T07:40:40.135Z,84.85
2019-01-29T07:41:20.714Z,84.56
2019-01-29T07:42:01.294Z,84.66
2019-01-29T07:42:41.886Z,84.56
2019-01-29T07:43:22.445Z,84.75
2019-01-29T07:44:02.994Z,84.66
2019-01-29T07:44:43.584Z,84.85
2019-01-29T07:45:24.131Z,84.66
2019-01-29T07:46:04.683Z,84.85
2019-01-29T07:46:45.294Z,84.85
2019-01-29T07:47:25.771Z,84.56
2019-01-29T07:48:06.586Z,84.85
2019-01-29T07:48:47.202Z,84.94
2019-01-29T07:49:27.779Z,84.85
2019-01-29T07:50:08.335Z,84.56
2019-01-29T07:50:48.902Z,84.85
2019-01-29T07:51:29.503Z,84.56
2019-01-29T07:52:10.076Z,84.85
2019-01-29T07:52:50.629Z,84.66
2019-01-29T07:53:31.204Z,85.13
2019-01-29T07:54:11.771Z,85.32
2019-01-29T07:54:52.334Z,85.04
2019-01-29T07:55:32.883Z,85.13
2019-01-29T07:56:13.449Z,85.23
2019-01-29T07:56:53.997Z,85.32
2019-01-29T07:57:34.558Z,85.8
2019-01-29T07:58:15.117Z,85.8
2019-01-29T07:58:55.697Z,86.08
2019-01-29T07:59:36.250Z,86.18
2019-01-29T08:00:16.818Z,86.36
2019-01-29T08:00:57.404Z,86.65
2019-01-29T08:01:37.970Z,86.65
2019-01-29T08:02:18.537Z,86.08
2019-01-29T08:02:59.111Z,86.36
2019-01-29T08:03:39.683Z,86.08
2019-01-29T08:04:20.235Z,86.65
2019-01-29T08:05:00.790Z,86.65
2019-01-29T08:05:41.343Z,86.08
2019-01-29T08:06:21.910Z,86.65
2019-01-29T08:07:02.544Z,86.65
2019-01-29T08:07:43.041Z,86.36
2019-01-29T08:08:23.577Z,85.89
2019-01-29T08:09:04.126Z,86.36
2019-01-29T08:09:44.692Z,86.27
2019-01-29T08:10:25.267Z,86.08
2019-01-29T08:11:05.859Z,86.55
2019-01-29T08:11:46.409Z,86.65
2019-01-29T08:12:27.024Z,86.74
2019-01-29T08:13:07.569Z,86.55
2019-01-29T08:13:48.260Z,86.46
2019-01-29T08:14:28.815Z,86.18
2019-01-29T08:15:09.579Z,85.89
2019-01-29T08:15:50.137Z,86.08
2019-01-29T08:16:30.692Z,86.65
2019-01-29T08:17:11.393Z,86.74
2019-01-29T08:17:51.953Z,87.12
2019-01-29T08:18:32.534Z,86.65
2019-01-29T08:19:13.088Z,86.83
2019-01-29T08:19:53.645Z,86.74
2019-01-29T08:20:34.197Z,86.83
2019-01-29T08:21:14.749Z,86.65
2019-01-29T08:21:55.316Z,86.65
2019-01-29T08:22:35.871Z,87.12
2019-01-29T08:23:16.452Z,87.02
2019-01-29T08:23:57.015Z,86.93
2019-01-29T08:24:37.570Z,86.74
2019-01-29T08:25:18.147Z,87.12
2019-01-29T08:25:58.976Z,86.74
2019-01-29T08:26:39.562Z,86.83
2019-01-29T08:27:20.284Z,86.65
2019-01-29T08:28:00.869Z,86.65
2019-01-29T08:28:41.411Z,87.12
2019-01-29T08:29:21.976Z,86.36
2019-01-29T08:30:02.521Z,86.18
2019-01-29T08:30:43.081Z,85.99
2019-01-29T08:31:23.669Z,85.99
2019-01-29T08:32:04.240Z,86.74
2019-01-29T08:32:44.806Z,86.65
2019-01-29T08:33:25.382Z,86.74
2019-01-29T08:34:05.963Z,87.02
2019-01-29T08:34:46.541Z,86.83
2019-01-29T08:35:27.089Z,87.21
2019-01-29T08:36:07.649Z,87.59
2019-01-29T08:36:48.211Z,87.02
2019-01-29T08:37:28.765Z,86.74
2019-01-29T08:38:09.424Z,86.83
2019-01-29T08:38:50.186Z,86.74
2019-01-29T08:39:30.625Z,86.74
2019-01-29T08:40:12.176Z,87.02
2019-01-29T08:40:52.748Z,87.12
2019-01-29T08:41:33.311Z,86.93
2019-01-29T08:42:15.397Z,86.08
2019-01-29T08:42:55.292Z,86.65
2019-01-29T08:43:35.856Z,86.65
2019-01-29T08:44:16.417Z,86.55
2019-01-29T08:44:56.971Z,86.18
2019-01-29T08:45:37.569Z,86.83
2019-01-29T08:46:18.407Z,86.65
2019-01-29T08:46:58.966Z,86.65
2019-01-29T08:47:39.520Z,86.74
2019-01-29T08:48:20.201Z,87.02